Time;durP1;ratioP1;P1;durP2;ratioP2;P2;SDS_P1;SDS_P2;PMS_P1;PMS_P2;Temp;Humidity;BMP_temperature;BMP_pressure;BME280_temperature;BME280_humidity;BME280_pressure;Samples;Min_cycle;Max_cycle;Signal;HPM_P1;HPM_P2
2022/08/10 00:01:11;;;;;;;2.10;1.93;;;15.30;99.90;15.90;97554.00;;;;5076425;28;20195;-70
2022/08/10 00:04:00;;;;;;;2.27;2.07;;;15.20;99.90;15.70;97559.00;;;;5088247;28;20203;-72
2022/08/10 00:06:52;;;;;;;6.20;2.57;;;15.10;99.90;15.70;97559.00;;;;5084344;28;20199;-70
2022/08/10 00:09:40;;;;;;;2.57;2.23;;;14.90;99.90;15.60;97549.00;;;;5073278;28;20301;-72
2022/08/10 00:12:29;;;;;;;4.10;2.33;;;14.80;99.90;15.60;97559.00;;;;5074389;28;20215;-69
2022/08/10 00:15:21;;;;;;;2.50;2.30;;;14.80;99.90;15.60;97561.00;;;;5073532;28;20196;-70
2022/08/10 00:18:10;;;;;;;2.67;2.43;;;14.70;99.90;15.90;97564.00;;;;5073791;28;20702;-70
2022/08/10 00:20:58;;;;;;;5.10;2.07;;;14.80;99.90;15.70;97559.00;;;;5066174;28;20204;-71
2022/08/10 00:23:48;;;;;;;2.43;2.23;;;14.70;99.90;15.80;97556.00;;;;5072754;28;20192;-70
2022/08/10 00:26:37;;;;;;;2.40;2.20;;;14.70;99.90;15.80;97555.00;;;;5082622;28;20200;-70
2022/08/10 00:29:26;;;;;;;2.43;2.20;;;;;15.70;97553.00;;;;5078706;28;20650;-70
2022/08/10 00:32:15;;;;;;;1.77;1.67;;;;;15.60;97547.00;;;;5085652;28;20199;-71
2022/08/10 00:35:05;;;;;;;2.63;2.37;;;;;15.50;97552.00;;;;5086171;28;20188;-69
2022/08/10 00:37:54;;;;;;;2.60;2.37;;;;;15.40;97548.00;;;;5074221;28;20301;-69
2022/08/10 00:40:44;;;;;;;3.83;2.47;;;;;15.70;97542.00;;;;5073933;28;20193;-70
2022/08/10 00:43:34;;;;;;;2.10;1.83;;;;;15.50;97552.00;;;;5069518;28;20212;-70
2022/08/10 00:46:23;;;;;;;3.63;2.20;;;;;15.40;97540.00;;;;5064386;28;20188;-70
2022/08/10 00:49:12;;;;;;;2.37;2.17;;;;;14.90;97539.00;;;;5061110;28;20224;-70
2022/08/10 00:52:02;;;;;;;2.60;2.30;;;;;15.30;97545.00;;;;5073356;28;20219;-69
2022/08/10 00:54:51;;;;;;;2.40;1.93;;;;;14.90;97542.00;;;;5074197;28;20200;-70
2022/08/10 00:57:41;;;;;;;2.27;2.10;;;;;14.90;97543.00;;;;5073564;28;20219;-70
2022/08/10 01:00:30;;;;;;;2.83;2.53;;;;;14.70;97535.00;;;;5073481;28;20192;-71
2022/08/10 01:03:19;;;;;;;4.43;2.50;;;;;14.30;97539.00;;;;5081353;28;20196;-70
2022/08/10 01:06:16;;;;;;;4.10;2.00;;;13.90;99.90;14.40;97542.00;;;;5065395;28;20196;-71
2022/08/10 01:09:15;;;;;;;2.43;2.23;;;13.80;99.90;15.00;97548.00;;;;5089659;28;20245;-70
2022/08/10 01:12:13;;;;;;;2.43;2.23;;;13.80;99.90;15.00;97547.00;;;;5062991;28;20227;-70
2022/08/10 01:15:11;;;;;;;3.57;2.40;;;13.90;99.90;15.30;97544.00;;;;5079170;28;20658;-74
2022/08/10 01:18:05;;;;;;;2.63;2.40;;;13.90;99.90;15.40;97551.00;;;;5063823;28;20219;-71
2022/08/10 01:21:23;;;;;;;6.93;2.30;;;14.00;99.90;15.30;97545.00;;;;5071807;28;20203;-71
2022/08/10 01:25:07;;;;;;;2.40;2.20;;;14.10;99.90;15.00;97551.00;;;;5064496;28;20196;-72
2022/08/10 01:28:07;;;;;;;6.43;2.90;;;14.00;99.90;15.10;97539.00;;;;5031926;28;20224;-72
2022/08/10 01:31:01;;;;;;;2.43;2.23;;;14.00;99.90;14.90;97548.00;;;;5074931;28;20223;-73
2022/08/10 01:33:55;;;;;;;2.30;2.10;;;14.00;99.90;14.60;97541.00;;;;5087465;28;20192;-71
2022/08/10 01:36:50;;;;;;;2.50;2.30;;;13.90;99.90;14.10;97550.00;;;;5074232;28;20203;-69
2022/08/10 01:39:45;;;;;;;3.90;2.47;;;13.70;99.90;14.20;97540.00;;;;5073278;28;20191;-71
2022/08/10 01:42:37;;;;;;;5.03;2.63;;;13.60;99.90;14.20;97549.00;;;;5071135;28;20223;-70
2022/08/10 01:45:28;;;;;;;3.80;2.73;;;13.50;99.90;14.20;97549.00;;;;5082596;28;20282;-70
2022/08/10 01:48:30;;;;;;;3.97;2.20;;;13.40;99.90;14.20;97541.00;;;;5087730;28;20638;-69
2022/08/10 01:51:29;;;;;;;2.83;2.63;;;13.30;99.90;14.20;97549.00;;;;5063010;28;20219;-70
2022/08/10 01:54:23;;;;;;;3.57;2.33;;;13.30;99.90;14.20;97557.00;;;;5063687;28;20200;-70
2022/08/10 01:57:13;;;;;;;3.13;2.83;;;13.30;99.90;14.30;97552.00;;;;5071159;28;20713;-70
2022/08/10 02:00:03;;;;;;;3.33;2.40;;;13.30;99.90;14.00;97547.00;;;;5067802;28;20599;-71
2022/08/10 02:02:54;;;;;;;4.13;2.53;;;13.30;99.90;14.40;97551.00;;;;5068114;28;20203;-70
2022/08/10 02:05:49;;;;;;;4.43;2.60;;;13.30;99.90;14.40;97547.00;;;;5085272;28;20587;-70
2022/08/10 02:08:38;;;;;;;6.27;2.47;;;13.30;99.90;14.60;97549.00;;;;5069074;28;20732;-71
2022/08/10 02:11:28;;;;;;;2.53;2.17;;;13.40;99.90;14.70;97547.00;;;;5074435;28;20268;-70
2022/08/10 02:14:18;;;;;;;3.67;2.20;;;13.50;99.90;14.70;97551.00;;;;5071135;28;20211;-71
2022/08/10 02:17:12;;;;;;;4.07;1.97;;;13.50;99.90;14.70;97541.00;;;;5073697;28;20196;-70
2022/08/10 02:20:06;;;;;;;2.30;2.10;;;13.50;99.90;14.50;97536.00;;;;5086635;28;20192;-70
2022/08/10 02:22:59;;;;;;;9.13;2.90;;;13.50;99.90;14.60;97541.00;;;;5066353;28;20211;-71
2022/08/10 02:25:50;;;;;;;1.70;1.60;;;13.50;99.90;14.60;97546.00;;;;5073897;28;20241;-70
2022/08/10 02:28:39;;;;;;;3.17;2.97;;;13.60;99.90;14.60;97545.00;;;;5062674;28;20222;-70
2022/08/10 02:31:29;;;;;;;5.97;2.10;;;13.60;99.90;14.70;97546.00;;;;5072307;28;20631;-70
2022/08/10 02:34:19;;;;;;;1.97;1.87;;;13.60;99.90;14.90;97552.00;;;;5086408;28;20596;-70
2022/08/10 02:37:09;;;;;;;2.70;2.37;;;13.60;99.90;14.80;97545.00;;;;5071049;28;20722;-71
2022/08/10 02:40:00;;;;;;;2.23;2.13;;;13.60;99.90;14.80;97540.00;;;;5073689;28;20559;-70
2022/08/10 02:43:00;;;;;;;1.90;1.80;;;13.70;99.90;14.60;97542.00;;;;5085193;28;20215;-69
2022/08/10 02:45:56;;;;;;;2.63;2.40;;;13.60;99.90;14.70;97542.00;;;;5085866;28;20678;-71
2022/08/10 02:48:50;;;;;;;5.00;2.17;;;13.60;99.90;14.50;97538.00;;;;5085926;28;20226;-70
2022/08/10 02:51:46;;;;;;;3.20;2.30;;;13.50;99.90;14.20;97539.00;;;;5069285;28;20227;-71
2022/08/10 02:54:44;;;;;;;3.33;2.00;;;13.50;99.90;14.20;97540.00;;;;5065546;28;20191;-70
2022/08/10 02:57:40;;;;;;;2.57;2.37;;;13.40;99.90;13.80;97533.00;;;;5072827;28;20216;-71
2022/08/10 03:00:30;;;;;;;3.23;2.43;;;13.30;99.90;13.80;97529.00;;;;5067476;28;20188;-70
2022/08/10 03:03:23;;;;;;;4.70;2.53;;;13.20;99.90;13.60;97537.00;;;;5074575;28;20207;-70
2022/08/10 03:06:18;;;;;;;3.30;2.50;;;13.30;99.90;13.90;97533.00;;;;5069371;28;20188;-69
2022/08/10 03:09:10;;;;;;;4.80;2.63;;;13.00;99.90;13.80;97535.00;;;;5059736;28;20224;-72
2022/08/10 03:12:00;;;;;;;3.50;2.57;;;13.00;99.90;13.60;97530.00;;;;5078315;28;20211;-70
2022/08/10 03:14:51;;;;;;;5.43;2.97;;;12.90;99.90;13.80;97528.00;;;;5072585;28;20192;-69
2022/08/10 03:17:41;;;;;;;2.63;2.43;;;12.90;99.90;13.20;97530.00;;;;5072358;28;20207;-70
2022/08/10 03:20:36;;;;;;;2.73;2.50;;;12.80;99.90;13.70;97537.00;;;;5085493;28;20231;-70
2022/08/10 03:23:28;;;;;;;3.90;2.87;;;12.80;99.90;14.00;97539.00;;;;5084748;28;20266;-69
2022/08/10 03:26:17;;;;;;;5.97;2.40;;;12.80;99.90;14.00;97533.00;;;;5085690;28;20713;-69
2022/08/10 03:29:10;;;;;;;4.50;2.53;;;12.80;99.90;13.50;97534.00;;;;5072258;28;20722;-72
2022/08/10 03:32:03;;;;;;;2.50;2.27;;;12.80;99.90;13.60;97545.00;;;;5063798;28;20226;-70
2022/08/10 03:34:52;;;;;;;3.63;1.93;;;12.80;99.90;13.80;97536.00;;;;5067135;28;20739;-70
2022/08/10 03:37:41;;;;;;;4.67;2.80;;;12.80;99.90;14.10;97547.00;;;;5069516;28;20224;-70
2022/08/10 03:40:35;;;;;;;2.77;2.57;;;12.80;99.90;13.80;97543.00;;;;5072992;28;20207;-72
2022/08/10 03:43:26;;;;;;;4.33;3.00;;;12.80;99.90;14.10;97555.00;;;;5083697;28;20289;-70
2022/08/10 03:46:19;;;;;;;5.47;2.57;;;12.90;99.90;14.00;97547.00;;;;5084505;28;20241;-70
2022/08/10 03:49:11;;;;;;;2.40;2.20;;;12.90;99.90;14.20;97547.00;;;;5079816;28;20224;-69
2022/08/10 03:52:01;;;;;;;2.80;2.17;;;12.90;99.90;14.10;97557.00;;;;5069161;28;20713;-71
2022/08/10 03:54:51;;;;;;;3.20;2.20;;;13.00;99.90;13.70;97551.00;;;;5073178;28;20200;-69
2022/08/10 03:57:40;;;;;;;2.17;2.00;;;12.90;99.90;13.70;97562.00;;;;5068606;28;20215;-71
2022/08/10 04:00:33;;;;;;;3.70;3.00;;;12.80;99.90;14.00;97557.00;;;;5065825;28;20683;-71
2022/08/10 04:03:22;;;;;;;4.77;2.77;;;12.90;99.90;14.00;97572.00;;;;5069381;28;20200;-72
2022/08/10 04:06:13;;;;;;;2.40;2.20;;;12.90;99.90;14.30;97569.00;;;;5088935;28;20696;-72
2022/08/10 04:09:03;;;;;;;2.40;2.30;;;13.00;99.90;14.20;97583.00;;;;5049443;28;20208;-71
2022/08/10 04:11:52;;;;;;;2.37;2.23;;;13.10;99.90;13.80;97581.00;;;;5063288;28;20230;-70
2022/08/10 04:14:41;;;;;;;6.23;2.40;;;13.00;99.90;13.90;97567.00;;;;5088637;28;20681;-71
2022/08/10 04:17:29;;;;;;;4.03;2.10;;;12.90;99.90;13.70;97572.00;;;;5074588;28;20224;-71
2022/08/10 04:20:24;;;;;;;2.63;2.43;;;12.90;99.90;13.60;97566.00;;;;5067927;28;20197;-70
2022/08/10 04:23:21;;;;;;;2.77;2.57;;;12.80;99.90;13.40;97570.00;;;;5082868;28;20195;-72
2022/08/10 04:26:10;;;;;;;3.87;2.50;;;12.70;99.90;13.30;97570.00;;;;5086343;28;20673;-72
2022/08/10 04:28:59;;;;;;;4.97;2.60;;;12.70;99.90;13.50;97578.00;;;;5069160;28;20689;-69
2022/08/10 04:31:49;;;;;;;3.73;3.07;;;12.60;99.90;13.00;97574.00;;;;5071390;28;20218;-72
2022/08/10 04:34:39;;;;;;;3.43;3.13;;;12.60;99.90;12.70;97566.00;;;;5062919;28;20222;-71
2022/08/10 04:37:29;;;;;;;6.77;2.63;;;12.40;99.90;12.70;97571.00;;;;5048325;28;20750;-70
2022/08/10 04:40:19;;;;;;;3.23;3.00;;;12.30;99.90;12.80;97573.00;;;;5048014;28;20208;-71
2022/08/10 04:43:08;;;;;;;4.10;2.53;;;12.20;99.90;13.10;97584.00;;;;5065515;28;20231;-69
2022/08/10 04:46:00;;;;;;;5.93;2.23;;;12.30;99.90;13.30;97585.00;;;;5070216;28;20199;-69
2022/08/10 04:48:49;;;;;;;2.33;2.20;;;12.40;99.90;12.90;97573.00;;;;5071653;28;20212;-71
2022/08/10 04:51:38;;;;;;;3.33;2.10;;;12.40;99.90;13.10;97584.00;;;;5069966;28;20555;-71
2022/08/10 04:54:27;;;;;;;2.93;2.57;;;12.40;99.90;13.40;97578.00;;;;5071395;28;20208;-72
2022/08/10 04:57:17;;;;;;;3.63;2.80;;;12.40;99.90;13.50;97587.00;;;;5066296;28;20216;-71
2022/08/10 05:00:07;;;;;;;10.73;7.57;;;12.50;99.90;13.60;97587.00;;;;5064088;28;20200;-70
2022/08/10 05:02:56;;;;;;;6.87;5.17;;;12.60;99.90;13.40;97583.00;;;;5071795;28;20224;-69
2022/08/10 05:05:45;;;;;;;4.33;3.87;;;12.70;99.90;13.30;97579.00;;;;5071698;28;20200;-69
2022/08/10 05:08:33;;;;;;;4.40;3.73;;;12.70;99.90;13.90;97588.00;;;;5069658;28;20588;-70
2022/08/10 05:11:22;;;;;;;17.90;10.00;;;12.80;99.90;14.20;97579.00;;;;5070227;28;20196;-72
2022/08/10 05:14:12;;;;;;;12.87;7.40;;;12.90;99.90;14.20;97584.00;;;;5078065;28;20200;-71
2022/08/10 05:17:01;;;;;;;4.33;3.93;;;13.10;99.90;14.20;97579.00;;;;5079032;28;20188;-69
2022/08/10 05:19:50;;;;;;;3.17;2.90;;;13.20;99.90;14.50;97576.00;;;;5072490;28;20204;-69
2022/08/10 05:22:42;;;;;;;3.10;2.80;;;13.40;99.90;14.60;97583.00;;;;5068081;28;20216;-69
2022/08/10 05:25:31;;;;;;;2.87;2.67;;;13.50;99.90;14.50;97582.00;;;;5068709;28;20200;-69
2022/08/10 05:28:20;;;;;;;6.00;3.13;;;13.60;99.90;14.80;97586.00;;;;5058813;22;20253;-70
2022/08/10 05:31:10;;;;;;;3.57;3.13;;;13.70;99.90;15.00;97584.00;;;;5009090;28;20213;-72
2022/08/10 05:33:58;;;;;;;2.93;2.60;;;13.80;99.90;14.80;97583.00;;;;5010346;28;20201;-73
2022/08/10 05:36:48;;;;;;;4.87;3.10;;;13.90;99.90;15.00;97583.00;;;;5017679;28;20559;-70
2022/08/10 05:39:37;;;;;;;2.93;2.70;;;14.00;99.90;15.20;97585.00;;;;4993550;28;20205;-70
2022/08/10 05:42:27;;;;;;;3.13;2.93;;;14.10;99.90;15.00;97590.00;;;;4990060;28;20218;-69
2022/08/10 05:45:21;;;;;;;3.13;2.83;;;14.20;99.90;15.20;97581.00;;;;4991027;28;20195;-69
2022/08/10 05:48:11;;;;;;;3.47;2.63;;;14.20;99.90;15.80;97589.00;;;;4992098;28;20226;-69
2022/08/10 05:51:00;;;;;;;4.13;3.13;;;14.40;99.90;15.80;97597.00;;;;4985213;28;20711;-70
2022/08/10 05:53:49;;;;;;;3.37;3.03;;;14.50;99.90;16.00;97588.00;;;;4989777;28;20214;-69
2022/08/10 05:56:39;;;;;;;3.70;3.40;;;14.70;99.90;16.20;97583.00;;;;4990271;28;20202;-70
2022/08/10 05:59:32;;;;;;;2.90;2.70;;;14.80;99.90;16.40;97587.00;;;;4982225;28;20222;-70
2022/08/10 06:02:28;;;;;;;4.47;2.97;;;15.00;99.90;16.40;97595.00;;;;4989258;28;20199;-71
2022/08/10 06:05:23;;;;;;;3.97;2.50;;;15.10;99.90;16.50;97585.00;;;;4991508;28;20210;-70
2022/08/10 06:08:16;;;;;;;4.53;3.03;;;15.30;99.90;16.90;97594.00;;;;4990819;28;20234;-70
2022/08/10 06:11:07;;;;;;;7.93;3.87;;;15.40;99.90;17.10;97598.00;;;;4989215;28;20205;-70
2022/08/10 06:17:04;;;;;;;4.13;3.73;;;15.80;99.90;17.80;97591.00;;;;4990200;28;20281;-69
2022/08/10 06:19:53;;;;;;;4.90;3.73;;;16.00;99.90;18.10;97600.00;;;;4990631;28;20203;-69
2022/08/10 06:22:43;;;;;;;9.63;4.10;;;16.30;99.90;18.50;97593.00;;;;4974608;28;20235;-69
2022/08/10 06:25:33;;;;;;;6.70;2.73;;;16.50;99.90;18.70;97588.00;;;;4971719;28;20242;-69
2022/08/10 06:28:49;;;;;;;5.40;3.10;;;16.70;99.90;19.00;97592.00;;;;4980654;28;20301;-70
2022/08/10 06:31:50;;;;;;;3.77;3.37;;;17.00;99.90;19.30;97586.00;;;;4981963;28;20670;-69
2022/08/10 06:34:45;;;;;;;4.17;3.00;;;17.30;99.90;19.50;97590.00;;;;4977623;28;20697;-69
2022/08/10 06:37:34;;;;;;;8.43;3.20;;;17.50;99.90;19.60;97590.00;;;;4986371;28;20211;-69
2022/08/10 06:40:28;;;;;;;3.17;2.90;;;17.70;99.90;20.00;97589.00;;;;4988494;28;20202;-68
2022/08/10 06:43:20;;;;;;;4.53;4.00;;;18.00;99.90;20.20;97585.00;;;;4985681;28;20617;-69
2022/08/10 06:46:16;;;;;;;4.10;2.97;;;18.20;99.90;20.50;97594.00;;;;4987733;28;20218;-68
2022/08/10 06:49:08;;;;;;;4.83;3.43;;;18.40;99.90;20.70;97589.00;;;;4984964;28;20233;-69
2022/08/10 06:51:57;;;;;;;7.17;3.27;;;18.60;99.90;20.90;97583.00;;;;4986096;28;20236;-69
2022/08/10 06:54:48;;;;;;;4.23;3.00;;;18.90;99.90;21.10;97584.00;;;;4989768;28;20225;-70
2022/08/10 06:57:40;;;;;;;4.97;2.50;;;19.10;99.90;21.30;97591.00;;;;4990280;28;20241;-70
2022/08/10 07:00:32;;;;;;;10.13;3.33;;;19.40;99.90;21.50;97587.00;;;;4988679;28;20206;-69
2022/08/10 07:03:26;;;;;;;4.23;2.43;;;19.50;99.90;21.70;97586.00;;;;4989368;28;20551;-70
2022/08/10 07:06:18;;;;;;;4.13;2.60;;;19.80;99.90;21.80;97590.00;;;;4987572;28;20206;-71
2022/08/10 07:09:09;;;;;;;6.27;2.67;;;19.90;99.90;22.00;97590.00;;;;4977037;28;20214;-71
2022/08/10 07:12:00;;;;;;;3.80;2.23;;;20.10;99.90;22.20;97595.00;;;;4989199;28;20202;-71
2022/08/10 07:14:52;;;;;;;6.60;2.57;;;20.30;99.90;22.40;97590.00;;;;4973761;28;20229;-70
2022/08/10 07:17:42;;;;;;;2.40;2.00;;;20.50;99.90;22.30;97589.00;;;;4989026;28;20226;-71
2022/08/10 07:20:32;;;;;;;9.30;2.67;;;20.60;99.90;22.60;97589.00;;;;4987909;28;20202;-70
2022/08/10 07:23:23;;;;;;;4.27;2.40;;;20.80;99.90;22.80;97586.00;;;;4978904;28;20206;-71
2022/08/10 07:26:13;;;;;;;7.07;2.30;;;20.90;99.90;23.00;97588.00;;;;4988172;28;20203;-71
2022/08/10 07:29:05;;;;;;;6.00;2.50;;;21.10;99.90;23.20;97589.00;;;;4989425;28;20219;-73
2022/08/10 07:31:56;;;;;;;7.53;2.43;;;21.20;99.90;23.30;97588.00;;;;4979456;28;20210;-72
2022/08/10 07:34:47;;;;;;;5.20;2.40;;;21.40;99.90;23.50;97577.00;;;;4988951;28;20252;-72
2022/08/10 07:37:37;;;;;;;5.40;2.00;;;21.50;99.90;23.80;97582.00;;;;4984741;28;20229;-73
2022/08/10 07:40:26;;;;;;;5.70;3.23;;;21.70;99.90;23.70;97580.00;;;;4982242;28;20217;-72
2022/08/10 07:43:17;;;;;;;2.73;1.63;;;21.90;99.90;24.00;97585.00;;;;4987276;28;20210;-71
2022/08/10 07:46:12;;;;;;;2.57;1.67;;;22.00;99.90;24.30;97586.00;;;;4987958;28;20203;-69
2022/08/10 07:49:08;;;;;;;3.70;2.03;;;22.20;99.90;24.50;97586.00;;;;4989457;28;20215;-71
2022/08/10 07:51:58;;;;;;;2.80;1.53;;;22.40;99.90;24.70;97590.00;;;;4985267;28;20195;-71
2022/08/10 07:54:52;;;;;;;3.73;1.70;;;22.60;99.90;24.60;97584.00;;;;4988460;28;20227;-70
2022/08/10 07:57:44;;;;;;;2.93;1.93;;;22.70;98.20;24.90;97577.00;;;;4993107;28;20218;-69
2022/08/10 08:00:34;;;;;;;3.37;2.20;;;22.80;96.90;25.10;97581.00;;;;4980123;28;20214;-72
2022/08/10 08:03:27;;;;;;;1.50;1.40;;;23.00;96.50;25.00;97577.00;;;;4980749;28;20203;-71
2022/08/10 08:06:17;;;;;;;3.37;1.47;;;23.10;94.10;25.30;97584.00;;;;4985311;28;20209;-70
2022/08/10 08:09:06;;;;;;;2.87;1.87;;;23.30;94.20;25.50;97575.00;;;;4985623;28;20277;-69
2022/08/10 08:11:57;;;;;;;2.70;1.40;;;23.40;93.40;25.30;97578.00;;;;4987469;28;20203;-71
2022/08/10 08:14:47;;;;;;;2.53;1.60;;;23.50;91.50;25.30;97580.00;;;;4988746;28;20600;-70
2022/08/10 08:17:38;;;;;;;2.60;1.63;;;23.60;92.00;25.80;97585.00;;;;4987453;28;20225;-70
2022/08/10 08:20:27;;;;;;;1.37;1.23;;;23.70;92.60;25.10;97596.00;;;;4992190;28;20202;-71
2022/08/10 08:23:19;;;;;;;2.03;1.47;;;23.70;91.50;24.60;97593.00;;;;4991585;28;20673;-71
2022/08/10 08:26:08;;;;;;;1.90;1.23;;;23.60;90.10;24.60;97588.00;;;;4992456;28;20195;-70
2022/08/10 08:28:57;;;;;;;3.50;1.50;;;23.40;88.30;24.80;97594.00;;;;4991482;28;20237;-70
2022/08/10 08:31:48;;;;;;;3.57;2.17;;;23.30;87.90;24.60;97597.00;;;;4986041;28;20195;-69
2022/08/10 08:34:40;;;;;;;1.80;1.20;;;23.20;89.20;24.50;97592.00;;;;4980672;28;20223;-70
2022/08/10 08:37:32;;;;;;;1.63;1.47;;;23.00;89.40;24.50;97592.00;;;;4985938;28;20238;-71
2022/08/10 08:40:27;;;;;;;4.27;1.70;;;22.90;89.80;24.40;97603.00;;;;4991668;28;20199;-70
2022/08/10 08:43:37;;;;;;;2.30;1.63;;;22.90;90.10;24.00;97600.00;;;;4988843;28;20211;-71
2022/08/10 08:46:44;;;;;;;5.07;2.10;;;22.80;90.10;24.50;97578.00;;;;4972654;28;20770;-71
2022/08/10 08:50:00;;;;;;;2.10;1.77;;;22.80;89.50;24.80;97604.00;;;;4973093;28;20882;-70
2022/08/10 08:53:02;;;;;;;2.50;1.40;;;22.90;90.30;24.90;97595.00;;;;4988674;28;20221;-73
2022/08/10 08:56:04;;;;;;;3.37;1.83;;;23.00;90.20;24.80;97599.00;;;;4991353;28;20634;-71
2022/08/10 08:59:24;;;;;;;2.23;1.50;;;23.00;89.40;25.20;97591.00;;;;4988836;28;20223;-71
2022/08/10 09:02:36;;;;;;;5.90;1.40;;;23.20;89.70;25.10;97596.00;;;;4971872;28;20214;-72
2022/08/10 09:05:40;;;;;;;4.23;1.60;;;23.30;89.90;25.00;97593.00;;;;4972498;28;20207;-71
2022/08/10 09:09:23;;;;;;;3.97;1.77;;;23.30;89.90;24.80;97594.00;;;;4995888;28;20219;-71
2022/08/10 09:12:34;;;;;;;2.20;1.67;;;23.30;89.20;24.10;97591.00;;;;4983138;28;20198;-70
2022/08/10 09:15:41;;;;;;;3.13;2.10;;;23.20;85.70;24.70;97583.00;;;;5000531;28;20229;-68
2022/08/10 09:18:42;;;;;;;2.97;1.70;;;23.10;89.90;24.50;97588.00;;;;4996988;28;20222;-71
2022/08/10 09:21:39;;;;;;;2.20;2.00;;;23.10;90.00;24.50;97586.00;;;;4985325;28;20203;-70
2022/08/10 09:24:41;;;;;;;5.70;2.10;;;23.20;89.10;23.90;97585.00;;;;5008815;28;20205;-73
2022/08/10 09:27:44;;;;;;;2.03;1.73;;;23.00;86.20;24.70;97588.00;;;;5010370;28;20535;-70
2022/08/10 09:30:41;;;;;;;1.87;1.60;;;23.00;86.30;24.10;97582.00;;;;4975940;28;20206;-71
2022/08/10 09:33:51;;;;;;;3.50;2.20;;;22.90;84.70;24.30;97574.00;;;;4990525;28;20230;-71
2022/08/10 09:36:50;;;;;;;2.53;1.80;;;22.90;84.30;24.20;97577.00;;;;4992053;28;20718;-74
2022/08/10 09:39:49;;;;;;;3.33;1.70;;;22.90;84.90;24.10;97587.00;;;;4984687;28;20207;-71
2022/08/10 09:42:45;;;;;;;4.80;2.00;;;22.90;84.00;24.20;97576.00;;;;4986685;28;20225;-70
2022/08/10 09:46:01;;;;;;;2.30;1.77;;;22.90;84.40;24.70;97573.00;;;;4972299;28;20752;-71
2022/08/10 09:49:05;;;;;;;2.13;1.50;;;23.00;84.70;24.60;97575.00;;;;4971387;28;20219;-72
2022/08/10 09:52:02;;;;;;;2.67;2.00;;;23.10;84.60;24.90;97569.00;;;;4986266;28;20207;-71
2022/08/10 09:55:10;;;;;;;3.93;1.83;;;23.20;85.10;24.20;97569.00;;;;4991000;28;20716;-69
2022/08/10 09:58:17;;;;;;;3.43;1.90;;;23.20;84.90;24.50;97566.00;;;;4990932;28;20230;-70
2022/08/10 10:01:13;;;;;;;3.50;1.90;;;23.20;83.20;24.90;97564.00;;;;4990848;28;20590;-72
2022/08/10 10:04:11;;;;;;;3.27;1.67;;;23.30;83.40;25.20;97570.00;;;;4996929;28;20195;-70
2022/08/10 10:07:05;;;;;;;2.90;1.80;;;23.40;84.50;25.20;97562.00;;;;4990141;28;20198;-71
2022/08/10 10:10:02;;;;;;;2.43;2.23;;;23.50;86.40;24.80;97555.00;;;;4988202;28;20205;-70
2022/08/10 10:12:57;;;;;;;5.07;2.07;;;23.50;82.80;24.80;97552.00;;;;4984385;28;20213;-71
2022/08/10 10:15:56;;;;;;;3.27;1.90;;;23.50;85.50;26.20;97514.00;;;;4990624;28;20229;-72
2022/08/10 10:18:57;;;;;;;2.27;2.03;;;23.80;87.10;25.90;97554.00;;;;4986650;28;20230;-70
2022/08/10 10:21:51;;;;;;;2.83;1.90;;;24.20;83.60;25.40;97551.00;;;;4987612;28;20215;-72
2022/08/10 10:24:52;;;;;;;4.87;2.00;;;24.10;82.70;25.00;97538.00;;;;4984284;28;20202;-69
2022/08/10 10:27:53;;;;;;;2.87;1.90;;;24.00;83.00;24.80;97531.00;;;;4984723;28;20238;-71
2022/08/10 10:30:56;;;;;;;1.40;1.30;;;23.80;81.80;25.20;97537.00;;;;4990631;28;20207;-71
2022/08/10 10:33:56;;;;;;;2.27;1.90;;;23.80;81.80;25.30;97541.00;;;;4990241;28;20205;-70
2022/08/10 10:36:47;;;;;;;2.10;1.90;;;23.80;81.50;25.40;97543.00;;;;4989730;28;20233;-71
2022/08/10 10:39:43;;;;;;;5.97;2.27;;;23.80;83.00;25.30;97543.00;;;;4986719;28;20214;-71
2022/08/10 10:42:47;;;;;;;2.50;1.90;;;23.80;84.80;25.40;97538.00;;;;4988093;28;20210;-71
2022/08/10 10:45:48;;;;;;;2.20;1.67;;;23.90;85.50;25.80;97523.00;;;;4989413;28;20206;-71
2022/08/10 10:48:54;;;;;;;1.83;1.73;;;24.00;85.30;25.90;97530.00;;;;4989633;28;20222;-70
2022/08/10 10:51:51;;;;;;;4.67;2.17;;;24.10;84.90;25.90;97532.00;;;;4986903;28;20195;-71
2022/08/10 10:54:49;;;;;;;4.77;2.67;;;24.10;83.70;25.60;97534.00;;;;4990896;28;20217;-71
2022/08/10 10:57:49;;;;;;;3.33;2.23;;;24.10;81.80;25.50;97531.00;;;;4991659;28;20237;-71
2022/08/10 11:00:48;;;;;;;2.73;1.70;;;24.10;81.70;25.30;97535.00;;;;4988781;28;20206;-71
2022/08/10 11:03:56;;;;;;;2.40;2.17;;;24.10;81.00;25.40;97533.00;;;;4998191;28;20190;-71
2022/08/10 11:06:57;;;;;;;1.90;1.80;;;24.00;82.10;25.80;97528.00;;;;4976734;28;20202;-72
2022/08/10 11:09:50;;;;;;;6.43;1.93;;;24.00;82.60;25.90;97535.00;;;;4982762;28;20210;-68
2022/08/10 11:12:46;;;;;;;2.70;1.70;;;24.10;84.60;26.10;97533.00;;;;4983769;28;20981;-70
2022/08/10 11:15:48;;;;;;;3.83;1.97;;;24.20;85.80;27.50;97472.00;;;;5006152;28;20228;-70
2022/08/10 11:18:58;;;;;;;1.63;1.53;;;24.70;86.90;27.80;97460.00;;;;4970640;28;20599;-70
2022/08/10 11:22:01;;;;;;;2.87;1.60;;;25.50;82.50;28.30;97464.00;;;;4985239;28;20199;-71
2022/08/10 11:24:57;;;;;;;4.47;1.80;;;26.10;78.10;28.60;97452.00;;;;4990441;28;20210;-71
2022/08/10 11:27:52;;;;;;;3.80;1.57;;;26.90;71.00;29.30;97454.00;;;;5001280;22;20650;-89
2022/08/10 11:30:47;;;;;;;1.93;1.20;;;26.90;71.30;28.50;97451.00;;;;5062521;28;20205;-90
2022/08/10 11:33:48;;;;;;;2.13;1.70;;;27.10;69.80;28.30;97442.00;;;;5048334;28;20205;-88
2022/08/10 11:37:08;;;;;;;3.23;2.03;;;27.10;67.60;29.20;97443.00;;;;5058245;28;20285;-89
2022/08/10 11:40:05;;;;;;;3.23;1.57;;;27.40;70.00;30.70;97439.00;;;;5047683;28;20194;-88
2022/08/10 11:43:08;;;;;;;1.80;1.53;;;27.80;70.10;31.90;97444.00;;;;5043506;28;20205;-89
2022/08/10 11:46:22;;;;;;;2.23;1.73;;;28.40;70.30;31.30;97437.00;;;;5043932;28;20221;-88
2022/08/10 11:49:27;;;;;;;5.23;1.80;;;29.00;64.90;32.90;97437.00;;;;5046678;28;20229;-89
2022/08/10 11:52:26;;;;;;;3.70;2.20;;;29.60;65.90;33.70;97433.00;;;;5043220;28;20722;-90
2022/08/10 11:55:21;;;;;;;1.70;1.38;;;30.60;59.80;33.40;97439.00;;;;5047312;28;20203;-86
2022/08/10 12:01:27;;;;;;;1.88;1.60;;;30.90;58.50;34.30;97441.00;;;;5045847;28;20213;-89
2022/08/10 12:04:20;;;;;;;3.20;1.83;;;31.40;58.90;32.00;97486.00;;;;5045719;28;20191;-89
2022/08/10 12:07:10;;;;;;;2.20;1.73;;;31.10;57.40;30.60;97472.00;;;;5044413;28;20227;-89
2022/08/10 12:10:00;;;;;;;5.32;2.47;;;30.50;56.20;32.10;97416.00;;;;5041584;28;20278;-89
2022/08/10 12:13:08;;;;;;;2.22;2.05;;;30.20;55.10;32.10;97471.00;;;;5044294;28;20203;-89
2022/08/10 12:16:03;;;;;;;3.40;1.75;;;30.10;56.40;30.90;97469.00;;;;5043478;28;20239;-89
2022/08/10 12:19:01;;;;;;;3.53;1.95;;;29.90;58.30;32.10;97413.00;;;;5046610;28;20599;-89
2022/08/10 12:22:00;;;;;;;4.13;1.65;;;29.70;58.10;33.20;97384.00;;;;5046409;28;20198;-89
2022/08/10 12:24:58;;;;;;;2.00;1.38;;;30.20;57.80;32.10;97463.00;;;;5051350;28;20635;-89
2022/08/10 12:27:53;;;;;;;3.25;1.33;;;30.10;58.10;33.60;97384.00;;;;5052641;28;20214;-89
2022/08/10 12:30:51;;;;;;;2.17;1.98;;;30.50;57.20;33.90;97391.00;;;;5049313;28;20696;-91
2022/08/10 12:33:49;;;;;;;3.75;1.98;;;31.10;54.60;34.70;97405.00;;;;5050431;28;20213;-89
2022/08/10 12:36:42;;;;;;;2.58;1.10;;;31.70;55.40;34.00;97389.00;;;;5049626;28;20222;-87
2022/08/10 12:39:47;;;;;;;7.05;1.98;;;31.80;56.00;34.80;97382.00;;;;5052274;28;20695;-87
2022/08/10 12:42:43;;;;;;;1.50;1.40;;;32.10;53.60;35.90;97440.00;;;;5048218;28;20220;-88
2022/08/10 12:45:37;;;;;;;1.48;1.38;;;32.50;53.40;34.30;97462.00;;;;5051300;28;20212;-87
2022/08/10 12:48:36;;;;;;;6.05;1.75;;;32.40;53.10;33.30;97453.00;;;;5048507;28;20211;-87
2022/08/10 12:51:29;;;;;;;1.58;1.48;;;32.10;52.80;33.00;97452.00;;;;5045900;28;20215;-88
2022/08/10 12:54:22;;;;;;;3.63;1.60;;;31.80;52.60;33.90;97372.00;;;;5049724;28;20206;-88
2022/08/10 12:57:16;;;;;;;3.47;1.70;;;31.80;53.40;35.40;97383.00;;;;5050755;28;20213;-87
2022/08/10 13:00:10;;;;;;;1.95;1.45;;;31.20;52.60;33.80;97382.00;;;;5049335;28;20703;-88
2022/08/10 13:03:01;;;;;;;1.98;1.75;;;32.50;50.50;34.30;97373.00;;;;5050399;28;20192;-88
2022/08/10 13:05:52;;;;;;;1.90;1.80;;;32.60;51.30;34.40;97373.00;;;;5048482;28;20221;-88